Time,TemperatureC,DewpointC,PressurehPa,WindDirection,WindDirectionDegrees,WindSpeedKMH,WindSpeedGustKMH,Humidity,HourlyPrecipMM,Conditions,Clouds,dailyrainMM,SolarRadiationWatts/m^2,UVIndex,SoftwareType,DateUTC
2020-05-30 00:02:53,11,7,1025.4,ESE,112,0.7,0.7,54.8,0.0,,,0.0,2,0,n/a,2020-05-29T22:02:53Z
2020-05-30 00:08:58,11,6.9,1025.4,ENE,77,0.3,0.9,55.1,0.0,,,0.0,2,0,n/a,2020-05-29T22:08:58Z
2020-05-30 00:14:58,11.5,6.9,1025.4,East,93,4.4,5.3,54.9,0.0,,,0.0,2,0,n/a,2020-05-29T22:14:58Z
2020-05-30 00:17:58,11.3,7.2,1025.4,NNE,22,8.1,8.4,55.7,0.0,,,0.0,0,0,n/a,2020-05-29T22:17:58Z
2020-05-30 00:23:58,11.3,7,1025.4,ESE,112,0.3,0.8,55.2,0.0,,,0.0,2,0,n/a,2020-05-29T22:23:58Z
2020-05-30 00:29:58,11,7.1,1025.4,East,90,0,0,55.4,0.0,,,0.0,2,0,n/a,2020-05-29T22:29:58Z
2020-05-30 00:32:58,10.9,7.2,1025.4,East,98,2,2.6,56,0.0,,,0.0,0,0,n/a,2020-05-29T22:32:58Z
2020-05-30 00:38:53,10.9,7,1025.4,ESE,112,0,0,55.6,0.0,,,0.0,0,0,n/a,2020-05-29T22:38:53Z
2020-05-30 00:44:58,11,7.1,1025.4,ESE,112,0,0,55.9,0.0,,,0.0,0,0,n/a,2020-05-29T22:44:58Z
2020-05-30 00:47:58,10.9,7.1,1025.4,ESE,112,0.4,0.8,56.2,0.0,,,0.0,2,0,n/a,2020-05-29T22:47:58Z
2020-05-30 00:53:58,11,7.1,1025.4,ESE,112,0.6,1.3,56.5,0.0,,,0.0,0,0,n/a,2020-05-29T22:53:58Z
2020-05-30 00:59:53,10.8,7.7,1025.1,ESE,112,0.6,0.7,58.6,0.0,,,0.0,0,0,n/a,2020-05-29T22:59:53Z
2020-05-30 01:02:58,10.6,7.6,1025.4,ESE,112,0,0,58.5,0.0,,,0.0,2,0,n/a,2020-05-29T23:02:58Z
2020-05-30 01:08:58,10.6,7.8,1025.4,ESE,112,0,0,59.7,0.0,,,0.0,2,0,n/a,2020-05-29T23:08:58Z
2020-05-30 01:14:58,10.5,7.8,1025.4,ESE,112,0,0,59.9,0.0,,,0.0,2,0,n/a,2020-05-29T23:14:58Z
2020-05-30 01:17:58,10.4,8,1025.4,ESE,112,0,0,60.4,0.0,,,0.0,0,0,n/a,2020-05-29T23:17:58Z
2020-05-30 01:20:58,10.4,7.9,1025.4,ESE,112,0,0,60.6,0.0,,,0.0,0,0,n/a,2020-05-29T23:20:58Z
2020-05-30 01:29:58,10.4,8,1025.4,SE,135,0,0,61,0.0,,,0.0,2,0,n/a,2020-05-29T23:29:58Z
2020-05-30 01:32:58,10.4,8.1,1025.4,North,0,0,0,61.9,0.0,,,0.0,2,0,n/a,2020-05-29T23:32:58Z
2020-05-30 01:38:58,10.4,8.1,1025.4,South,180,0,0,62.1,0.0,,,0.0,0,0,n/a,2020-05-29T23:38:58Z
2020-05-30 01:44:58,10.3,8,1025.1,South,180,0,0,62.1,0.0,,,0.0,0,0,n/a,2020-05-29T23:44:58Z
2020-05-30 01:47:57,10.3,8,1025.4,South,180,0,0,61.9,0.0,,,0.0,0,0,n/a,2020-05-29T23:47:57Z
2020-05-30 01:53:58,10.3,8,1025.1,SSW,202,3,4.5,62.2,0.0,,,0.0,2,0,n/a,2020-05-29T23:53:58Z
2020-05-30 01:59:58,10.2,8,1025.1,WSW,247,1.6,3.9,62.3,0.0,,,0.0,2,0,n/a,2020-05-29T23:59:58Z
2020-05-30 02:02:58,10.2,7.9,1025.1,SW,225,0,0,62.5,0.0,,,0.0,0,0,n/a,2020-05-30T00:02:58Z
2020-05-30 02:08:53,10.2,7.9,1024.9,SW,225,0,0,62.4,0.0,,,0.0,2,0,n/a,2020-05-30T00:08:53Z
2020-05-30 02:14:58,10.1,8.2,1024.9,SW,225,0,0,63.8,0.0,,,0.0,2,0,n/a,2020-05-30T00:14:58Z
2020-05-30 02:17:58,10.1,8.3,1024.9,SW,225,0,0,64.5,0.0,,,0.0,0,0,n/a,2020-05-30T00:17:58Z
2020-05-30 02:23:58,10.2,8.1,1025.1,SSW,202,0.2,0.7,63.9,0.0,,,0.0,0,0,n/a,2020-05-30T00:23:58Z
2020-05-30 02:29:58,10.1,8,1024.9,WSW,247,0,0,63.8,0.0,,,0.0,0,0,n/a,2020-05-30T00:29:58Z
2020-05-30 02:32:58,10,8.2,1024.9,WSW,247,0,0,64.3,0.0,,,0.0,0,0,n/a,2020-05-30T00:32:58Z
2020-05-30 02:38:58,9.9,8.3,1024.9,ESE,112,0,0,64.8,0.0,,,0.0,2,0,n/a,2020-05-30T00:38:58Z
2020-05-30 02:44:58,9.9,8.4,1024.9,SSW,202,0,0,65.6,0.0,,,0.0,0,0,n/a,2020-05-30T00:44:58Z
2020-05-30 02:47:58,9.9,8.3,1024.9,WSW,247,0,0,65.3,0.0,,,0.0,0,0,n/a,2020-05-30T00:47:58Z
2020-05-30 02:53:58,10.1,8.2,1024.9,WSW,247,0,0,64.9,0.0,,,0.0,2,0,n/a,2020-05-30T00:53:58Z
2020-05-30 02:59:53,9.9,8.2,1024.9,WSW,247,0,0,65.3,0.0,,,0.0,2,0,n/a,2020-05-30T00:59:53Z
2020-05-30 03:02:58,9.9,8.4,1024.9,WSW,247,0,0,66,0.0,,,0.0,2,0,n/a,2020-05-30T01:02:58Z
2020-05-30 03:08:58,9.9,8.5,1024.6,SW,225,0,0,66.3,0.0,,,0.0,2,0,n/a,2020-05-30T01:08:58Z
2020-05-30 03:14:53,9.9,8.3,1024.6,North,0,0,0,66,0.0,,,0.0,2,0,n/a,2020-05-30T01:14:53Z
2020-05-30 03:17:58,9.9,8.2,1024.9,SSW,202,0,0,65.9,0.0,,,0.0,2,0,n/a,2020-05-30T01:17:58Z
2020-05-30 03:23:58,9.9,8.4,1024.9,SSW,202,0,0,66.5,0.0,,,0.0,0,0,n/a,2020-05-30T01:23:58Z
2020-05-30 03:29:58,10.1,8.2,1024.6,WNW,292,0,0,65.9,0.0,,,0.0,0,0,n/a,2020-05-30T01:29:58Z
2020-05-30 03:32:53,10.6,7.9,1024.6,ENE,67,0,0,64.3,0.0,,,0.0,2,0,n/a,2020-05-30T01:32:53Z
2020-05-30 03:38:58,10.6,7.8,1024.6,ESE,112,0,0,64,0.0,,,0.0,2,0,n/a,2020-05-30T01:38:58Z
2020-05-30 03:44:58,10.8,7.6,1024.6,ESE,104,2.4,3.9,62.8,0.0,,,0.0,2,0,n/a,2020-05-30T01:44:58Z
2020-05-30 03:47:53,11.1,7.7,1024.3,NNE,22,0,0,62.8,0.0,,,0.0,0,0,n/a,2020-05-30T01:47:53Z
2020-05-30 03:53:59,10.9,7.8,1024.3,NNE,31,4,4.9,63.1,0.0,,,0.0,0,0,n/a,2020-05-30T01:53:59Z
2020-05-30 03:59:57,10.6,7.8,1024.3,NE,36,1.2,3.2,63.3,0.0,,,0.0,2,0,n/a,2020-05-30T01:59:57Z
2020-05-30 04:02:57,10.4,7.8,1024.3,ENE,67,0,0,62.9,0.0,,,0.0,0,0,n/a,2020-05-30T02:02:57Z
2020-05-30 04:08:53,10.7,7.5,1024.3,NNE,22,4.8,7.7,62.1,0.0,,,0.0,2,0,n/a,2020-05-30T02:08:53Z
2020-05-30 04:14:58,10.4,7.5,1024.3,North,0,1.9,4.1,62.5,0.0,,,0.0,2,0,n/a,2020-05-30T02:14:58Z
2020-05-30 04:17:58,10.6,7.3,1024.1,NNE,22,5.6,6.5,62.3,0.0,,,0.0,2,0,n/a,2020-05-30T02:17:58Z
2020-05-30 04:23:58,10.3,7.4,1024.3,North,0,3.9,8.1,62.6,0.0,,,0.0,2,0,n/a,2020-05-30T02:23:58Z
2020-05-30 04:29:53,10.5,7.3,1024.3,ENE,63,3.4,5.2,62.8,0.0,,,0.0,0,0,n/a,2020-05-30T02:29:53Z
2020-05-30 04:32:57,10.5,7.3,1024.3,ENE,67,2,2.6,62.7,0.0,,,0.0,0,0,n/a,2020-05-30T02:32:57Z
2020-05-30 04:38:58,10.5,7.4,1024.3,NE,50,1.3,2.6,63.1,0.0,,,0.0,2,0,n/a,2020-05-30T02:38:58Z
2020-05-30 04:44:58,10.7,7.4,1024.3,NE,54,1.7,3.9,63.1,0.0,,,0.0,2,0,n/a,2020-05-30T02:44:58Z